EIN58P LEMG-EIDW
Flight info
| Callsign | EIN58P |
|---|---|
| Flight time | N/A |
| Altitude | 36000 |
| Route | BLN DCT MORAL DCT BEXID DCT VTB DCT NVS DCT AVILA DCT ZMR DCT VETAN DCT OMESI DCT VES DCT KORUL DCT TULTA/M075F360 DCT TUVEN/N0430F360 DCT WTD DCT BUNED BUNED4L |
| Aircraft | A320/M-SDE3FGHIRWY/LB1 |
Departure
| Time | 2026-05-06 10:00 |
|---|---|
| Airport | Málaga-Costa del Sol Airport (LEMG) |
Arrival
| Time | N/A |
|---|---|
| Airport | Dublin Airport (EIDW) |
| Time | Latitude | Longitude | Altitude | Speed | Heading |
|---|---|---|---|---|---|
| 2026-05-06 09:24 | 36.67267 | -4.49026 | 42 ft | 0 kts | 9° |
| 2026-05-06 09:48 | 36.67249 | -4.49029 | 42 ft | 4 kts | 9° |
| 2026-05-06 09:48 | 36.67222 | -4.49034 | 42 ft | 4 kts | 5° |
| 2026-05-06 09:48 | 36.67195 | -4.49034 | 42 ft | 4 kts | 349° |
| 2026-05-06 09:49 | 36.67175 | -4.49025 | 39 ft | 3 kts | 324° |
| 2026-05-06 09:49 | 36.67154 | -4.49004 | 40 ft | 4 kts | 316° |
| 2026-05-06 09:49 | 36.67135 | -4.48980 | 41 ft | 3 kts | 311° |
| 2026-05-06 09:49 | 36.67132 | -4.48976 | 41 ft | 0 kts | 311° |
| 2026-05-06 09:54 | 36.67140 | -4.48987 | 42 ft | 4 kts | 310° |
| 2026-05-06 09:54 | 36.67151 | -4.49027 | 42 ft | 6 kts | 268° |
| 2026-05-06 09:54 | 36.67140 | -4.49093 | 42 ft | 10 kts | 274° |
| 2026-05-06 09:54 | 36.67184 | -4.49184 | 42 ft | 15 kts | 310° |
| 2026-05-06 09:55 | 36.67264 | -4.49293 | 42 ft | 19 kts | 311° |
| 2026-05-06 09:55 | 36.67355 | -4.49424 | 43 ft | 21 kts | 313° |
| 2026-05-06 09:55 | 36.67456 | -4.49566 | 42 ft | 23 kts | 311° |
| 2026-05-06 09:55 | 36.67565 | -4.49719 | 43 ft | 24 kts | 311° |
| 2026-05-06 09:56 | 36.67681 | -4.49879 | 43 ft | 26 kts | 312° |
| 2026-05-06 09:56 | 36.67780 | -4.50021 | 44 ft | 19 kts | 310° |
| 2026-05-06 09:56 | 36.67874 | -4.50153 | 44 ft | 21 kts | 312° |
| 2026-05-06 09:56 | 36.67977 | -4.50293 | 44 ft | 23 kts | 312° |
| 2026-05-06 09:57 | 36.68087 | -4.50450 | 44 ft | 25 kts | 310° |
| 2026-05-06 09:57 | 36.68191 | -4.50596 | 44 ft | 21 kts | 309° |
| 2026-05-06 09:57 | 36.68288 | -4.50735 | 45 ft | 21 kts | 313° |
| 2026-05-06 09:57 | 36.68383 | -4.50861 | 49 ft | 20 kts | 312° |
| 2026-05-06 09:58 | 36.68462 | -4.50977 | 52 ft | 13 kts | 310° |
| 2026-05-06 09:58 | 36.68501 | -4.51075 | 53 ft | 13 kts | 265° |
| 2026-05-06 09:58 | 36.68445 | -4.51127 | 59 ft | 9 kts | 192° |
| 2026-05-06 09:58 | 36.68401 | -4.51138 | 60 ft | 5 kts | 188° |
| 2026-05-06 09:59 | 36.68360 | -4.51125 | 61 ft | 8 kts | 143° |
| 2026-05-06 09:59 | 36.68336 | -4.51094 | 60 ft | 0 kts | 131° |
| 2026-05-06 09:59 | 36.68311 | -4.51060 | 57 ft | 30 kts | 131° |
| 2026-05-06 09:59 | 36.67977 | -4.50595 | 54 ft | 109 kts | 131° |
| 2026-05-06 10:00 | 36.67333 | -4.49695 | 51 ft | 167 kts | 131° |
| 2026-05-06 10:00 | 36.66510 | -4.48544 | 451 ft | 188 kts | 133° |
| 2026-05-06 10:00 | 36.65598 | -4.47264 | 1029 ft | 207 kts | 134° |
| 2026-05-06 10:00 | 36.64626 | -4.45899 | 1673 ft | 219 kts | 132° |
| 2026-05-06 10:01 | 36.63587 | -4.44434 | 2317 ft | 230 kts | 132° |
| 2026-05-06 10:01 | 36.62508 | -4.42927 | 3002 ft | 239 kts | 133° |
| 2026-05-06 10:01 | 36.61399 | -4.41385 | 3960 ft | 240 kts | 133° |
| 2026-05-06 10:01 | 36.60320 | -4.39785 | 4898 ft | 243 kts | 122° |
| 2026-05-06 10:02 | 36.59701 | -4.37815 | 5743 ft | 248 kts | 101° |
| 2026-05-06 10:02 | 36.59357 | -4.35715 | 6685 ft | 248 kts | 100° |
| 2026-05-06 10:02 | 36.59006 | -4.33596 | 7516 ft | 253 kts | 101° |
| 2026-05-06 10:02 | 36.58652 | -4.31436 | 8333 ft | 258 kts | 99° |
| 2026-05-06 10:03 | 36.58635 | -4.29197 | 9176 ft | 262 kts | 80° |
| 2026-05-06 10:03 | 36.59207 | -4.27006 | 9863 ft | 274 kts | 60° |
| 2026-05-06 10:03 | 36.60330 | -4.25070 | 10553 ft | 280 kts | 50° |
| 2026-05-06 10:03 | 36.61541 | -4.23193 | 11335 ft | 284 kts | 49° |
| 2026-05-06 10:04 | 36.62948 | -4.21461 | 12146 ft | 286 kts | 34° |
| 2026-05-06 10:04 | 36.64687 | -4.20192 | 12656 ft | 300 kts | 20° |
| 2026-05-06 10:04 | 36.66734 | -4.19326 | 12930 ft | 322 kts | 15° |
| 2026-05-06 10:04 | 36.68939 | -4.18444 | 13274 ft | 341 kts | 15° |
| 2026-05-06 10:05 | 36.71225 | -4.17521 | 13923 ft | 349 kts | 15° |
| 2026-05-06 10:05 | 36.73550 | -4.16598 | 14601 ft | 353 kts | 15° |
| 2026-05-06 10:05 | 36.75881 | -4.15692 | 15290 ft | 358 kts | 14° |
| 2026-05-06 10:05 | 36.78274 | -4.14767 | 15969 ft | 362 kts | 14° |
| 2026-05-06 10:06 | 36.80698 | -4.13831 | 16634 ft | 367 kts | 14° |
| 2026-05-06 10:06 | 36.83151 | -4.12882 | 17295 ft | 372 kts | 14° |
| 2026-05-06 10:06 | 36.85531 | -4.11958 | 17925 ft | 376 kts | 14° |
| 2026-05-06 10:06 | 36.88044 | -4.10978 | 18557 ft | 381 kts | 14° |
| 2026-05-06 10:07 | 36.90586 | -4.09986 | 19142 ft | 385 kts | 14° |
| 2026-05-06 10:07 | 36.93155 | -4.08980 | 19738 ft | 389 kts | 14° |
| 2026-05-06 10:07 | 36.95751 | -4.07961 | 20345 ft | 393 kts | 13° |
| 2026-05-06 10:07 | 36.98371 | -4.06929 | 20936 ft | 397 kts | 13° |
| 2026-05-06 10:08 | 37.00986 | -4.05902 | 21502 ft | 401 kts | 13° |
| 2026-05-06 10:08 | 37.03642 | -4.04862 | 22052 ft | 406 kts | 13° |
| 2026-05-06 10:08 | 37.06350 | -4.03802 | 22620 ft | 410 kts | 13° |
| 2026-05-06 10:08 | 37.09090 | -4.02728 | 23184 ft | 415 kts | 13° |
| 2026-05-06 10:09 | 37.11857 | -4.01640 | 23707 ft | 419 kts | 13° |
| 2026-05-06 10:09 | 37.14469 | -4.00613 | 24145 ft | 422 kts | 13° |
| 2026-05-06 10:09 | 37.17284 | -3.99506 | 24633 ft | 426 kts | 13° |
| 2026-05-06 10:09 | 37.19165 | -3.98768 | 24933 ft | 428 kts | 12° |
| 2026-05-06 10:10 | 37.22402 | -3.97531 | 25429 ft | 431 kts | 12° |
| 2026-05-06 10:10 | 37.25286 | -3.96461 | 25877 ft | 434 kts | 11° |
| 2026-05-06 10:10 | 37.28160 | -3.95405 | 26299 ft | 437 kts | 11° |
| 2026-05-06 10:10 | 37.30095 | -3.94692 | 26589 ft | 439 kts | 11° |
| 2026-05-06 10:11 | 37.33876 | -3.93294 | 27146 ft | 443 kts | 11° |
| 2026-05-06 10:11 | 37.35840 | -3.92564 | 27425 ft | 445 kts | 11° |
| 2026-05-06 10:11 | 37.38479 | -3.91579 | 27776 ft | 447 kts | 11° |
| 2026-05-06 10:11 | 37.41456 | -3.90463 | 28210 ft | 450 kts | 11° |
| 2026-05-06 10:12 | 37.45446 | -3.88958 | 28719 ft | 454 kts | 11° |
| 2026-05-06 10:12 | 37.48483 | -3.87815 | 29103 ft | 457 kts | 11° |
| 2026-05-06 10:12 | 37.51535 | -3.86668 | 29481 ft | 460 kts | 11° |
| 2026-05-06 10:12 | 37.54425 | -3.85579 | 29819 ft | 462 kts | 11° |
| 2026-05-06 10:13 | 37.57334 | -3.84482 | 30147 ft | 465 kts | 11° |
| 2026-05-06 10:13 | 37.59390 | -3.83707 | 30338 ft | 467 kts | 10° |
| 2026-05-06 10:13 | 37.62508 | -3.82534 | 30625 ft | 469 kts | 11° |
| 2026-05-06 10:13 | 37.65643 | -3.81347 | 30928 ft | 471 kts | 11° |
| 2026-05-06 10:14 | 37.69818 | -3.79765 | 31297 ft | 475 kts | 11° |
| 2026-05-06 10:14 | 37.72830 | -3.78627 | 31569 ft | 477 kts | 10° |
| 2026-05-06 10:14 | 37.76004 | -3.77427 | 31948 ft | 476 kts | 10° |
| 2026-05-06 10:14 | 37.79173 | -3.76226 | 32330 ft | 476 kts | 10° |
| 2026-05-06 10:15 | 37.81271 | -3.75431 | 32584 ft | 475 kts | 10° |
| 2026-05-06 10:15 | 37.84433 | -3.74232 | 32972 ft | 475 kts | 10° |
| 2026-05-06 10:15 | 37.87598 | -3.73030 | 33361 ft | 475 kts | 10° |
| 2026-05-06 10:15 | 37.90688 | -3.71855 | 33766 ft | 474 kts | 10° |
| 2026-05-06 10:16 | 37.94868 | -3.70262 | 34234 ft | 473 kts | 10° |
| 2026-05-06 10:16 | 37.98004 | -3.69069 | 34555 ft | 473 kts | 10° |
| 2026-05-06 10:16 | 38.01150 | -3.67872 | 34865 ft | 472 kts | 10° |
| 2026-05-06 10:16 | 38.03276 | -3.67062 | 35061 ft | 472 kts | 10° |
| 2026-05-06 10:17 | 38.06380 | -3.65877 | 35349 ft | 472 kts | 10° |
| 2026-05-06 10:17 | 38.09350 | -3.64739 | 35633 ft | 471 kts | 10° |
| 2026-05-06 10:17 | 38.12363 | -3.63585 | 35876 ft | 472 kts | 10° |
| 2026-05-06 10:17 | 38.15516 | -3.62574 | 35968 ft | 461 kts | 2° |
| 2026-05-06 10:18 | 38.21789 | -3.61845 | 35961 ft | 450 kts | 356° |
| 2026-05-06 10:18 | 38.27901 | -3.61262 | 35961 ft | 450 kts | 356° |
| 2026-05-06 10:19 | 38.34098 | -3.60661 | 35961 ft | 450 kts | 356° |
| 2026-05-06 10:19 | 38.40242 | -3.60059 | 35959 ft | 450 kts | 356° |
| 2026-05-06 10:20 | 38.46209 | -3.59481 | 35959 ft | 450 kts | 356° |
| 2026-05-06 10:20 | 38.52447 | -3.58881 | 35958 ft | 450 kts | 356° |
| 2026-05-06 10:21 | 38.58580 | -3.58286 | 35962 ft | 450 kts | 356° |
| 2026-05-06 10:21 | 38.64581 | -3.57694 | 35978 ft | 450 kts | 357° |
| 2026-05-06 10:22 | 38.70817 | -3.57081 | 35976 ft | 449 kts | 357° |
| 2026-05-06 10:22 | 38.77011 | -3.56474 | 35972 ft | 449 kts | 357° |
| 2026-05-06 10:23 | 38.82945 | -3.55896 | 35975 ft | 449 kts | 357° |
| 2026-05-06 10:23 | 38.89111 | -3.55288 | 36000 ft | 449 kts | 357° |
| 2026-05-06 10:24 | 38.95335 | -3.54672 | 35993 ft | 448 kts | 357° |
| 2026-05-06 10:24 | 39.01211 | -3.54098 | 35990 ft | 448 kts | 357° |
| 2026-05-06 10:25 | 39.07431 | -3.53483 | 36007 ft | 448 kts | 357° |
| 2026-05-06 10:25 | 39.13287 | -3.52903 | 35994 ft | 448 kts | 357° |
| 2026-05-06 10:26 | 39.19501 | -3.52278 | 35999 ft | 448 kts | 357° |
| 2026-05-06 10:26 | 39.25714 | -3.51657 | 35995 ft | 448 kts | 357° |
| 2026-05-06 10:27 | 39.31885 | -3.51038 | 36021 ft | 447 kts | 357° |
| 2026-05-06 10:27 | 39.38043 | -3.50426 | 36011 ft | 446 kts | 357° |
| 2026-05-06 10:28 | 39.44228 | -3.49811 | 36003 ft | 446 kts | 357° |
| 2026-05-06 10:28 | 39.50410 | -3.49184 | 35995 ft | 445 kts | 357° |
| 2026-05-06 10:29 | 39.56586 | -3.48570 | 36021 ft | 445 kts | 358° |
| 2026-05-06 10:29 | 39.62750 | -3.47947 | 36014 ft | 444 kts | 358° |
| 2026-05-06 10:30 | 39.68861 | -3.47327 | 36005 ft | 444 kts | 358° |
| 2026-05-06 10:30 | 39.74922 | -3.47556 | 36008 ft | 428 kts | 340° |
| 2026-05-06 10:31 | 39.80330 | -3.50304 | 36015 ft | 411 kts | 321° |
| 2026-05-06 10:31 | 39.84546 | -3.54937 | 36003 ft | 399 kts | 308° |
| 2026-05-06 10:32 | 39.88381 | -3.60021 | 35992 ft | 400 kts | 309° |
| 2026-05-06 10:32 | 39.92276 | -3.65176 | 35993 ft | 400 kts | 309° |
| 2026-05-06 10:33 | 39.96169 | -3.70344 | 35989 ft | 400 kts | 309° |
| 2026-05-06 10:33 | 40.00035 | -3.75494 | 36011 ft | 401 kts | 309° |
| 2026-05-06 10:34 | 40.03843 | -3.80570 | 36004 ft | 401 kts | 309° |
| 2026-05-06 10:34 | 40.07620 | -3.85603 | 35989 ft | 401 kts | 309° |
| 2026-05-06 10:35 | 40.11326 | -3.90550 | 35986 ft | 401 kts | 309° |
| 2026-05-06 10:35 | 40.15173 | -3.95705 | 35990 ft | 402 kts | 309° |
| 2026-05-06 10:36 | 40.19039 | -4.00896 | 36003 ft | 402 kts | 309° |
| 2026-05-06 10:36 | 40.22816 | -4.05981 | 36005 ft | 402 kts | 309° |
| 2026-05-06 10:37 | 40.26446 | -4.10872 | 35998 ft | 402 kts | 309° |
| 2026-05-06 10:37 | 40.30116 | -4.15816 | 35992 ft | 402 kts | 309° |
| 2026-05-06 10:38 | 40.34016 | -4.21074 | 35999 ft | 402 kts | 309° |
| 2026-05-06 10:38 | 40.37893 | -4.26248 | 35998 ft | 403 kts | 311° |
| 2026-05-06 10:39 | 40.41999 | -4.31149 | 36018 ft | 406 kts | 314° |
| 2026-05-06 10:39 | 40.45760 | -4.35420 | 36008 ft | 406 kts | 314° |
| 2026-05-06 10:40 | 40.49984 | -4.40284 | 36008 ft | 406 kts | 314° |
| 2026-05-06 10:40 | 40.53946 | -4.44930 | 36006 ft | 406 kts | 313° |
| 2026-05-06 10:41 | 40.58124 | -4.49862 | 36009 ft | 406 kts | 313° |
| 2026-05-06 10:41 | 40.62105 | -4.54565 | 36008 ft | 406 kts | 313° |
| 2026-05-06 10:42 | 40.65947 | -4.59097 | 36005 ft | 406 kts | 314° |
| 2026-05-06 10:42 | 40.69897 | -4.63770 | 36001 ft | 406 kts | 314° |
| 2026-05-06 10:43 | 40.73851 | -4.68463 | 35998 ft | 406 kts | 313° |
| 2026-05-06 10:44 | 40.80017 | -4.75787 | 36001 ft | 406 kts | 313° |
| 2026-05-06 10:44 | 40.84217 | -4.80780 | 36023 ft | 406 kts | 314° |
| 2026-05-06 10:45 | 40.88227 | -4.85554 | 36015 ft | 407 kts | 314° |
| 2026-05-06 10:45 | 40.92424 | -4.90579 | 36010 ft | 407 kts | 314° |
| 2026-05-06 10:46 | 40.96625 | -4.95604 | 36016 ft | 407 kts | 314° |
| 2026-05-06 10:46 | 41.00731 | -5.00521 | 36014 ft | 408 kts | 314° |
| 2026-05-06 10:47 | 41.04868 | -5.05490 | 36022 ft | 407 kts | 314° |
| 2026-05-06 10:47 | 41.08999 | -5.10446 | 36021 ft | 407 kts | 314° |
| 2026-05-06 10:48 | 41.13193 | -5.15497 | 36020 ft | 407 kts | 314° |
| 2026-05-06 10:48 | 41.17361 | -5.20533 | 36017 ft | 407 kts | 314° |
| 2026-05-06 10:49 | 41.21540 | -5.25582 | 36013 ft | 407 kts | 314° |
| 2026-05-06 10:49 | 41.25542 | -5.30445 | 36028 ft | 407 kts | 314° |
| 2026-05-06 10:50 | 41.29729 | -5.35531 | 36016 ft | 408 kts | 314° |
| 2026-05-06 10:50 | 41.33894 | -5.40592 | 36012 ft | 408 kts | 314° |
| 2026-05-06 10:51 | 41.38099 | -5.45708 | 36006 ft | 408 kts | 314° |
| 2026-05-06 10:51 | 41.42117 | -5.50595 | 36011 ft | 409 kts | 314° |
| 2026-05-06 10:52 | 41.46271 | -5.55669 | 36021 ft | 409 kts | 314° |
| 2026-05-06 10:52 | 41.50509 | -5.60740 | 36010 ft | 411 kts | 320° |
| 2026-05-06 10:53 | 41.55641 | -5.64188 | 36009 ft | 420 kts | 341° |
| 2026-05-06 10:53 | 41.61382 | -5.65434 | 36008 ft | 424 kts | 348° |
| 2026-05-06 10:54 | 41.67204 | -5.66454 | 36024 ft | 425 kts | 349° |
| 2026-05-06 10:54 | 41.73062 | -5.67487 | 36020 ft | 425 kts | 348° |
| 2026-05-06 10:55 | 41.78858 | -5.68513 | 36017 ft | 425 kts | 349° |
| 2026-05-06 10:55 | 41.84726 | -5.69549 | 36031 ft | 425 kts | 349° |
| 2026-05-06 10:56 | 41.90554 | -5.70574 | 36025 ft | 425 kts | 349° |
| 2026-05-06 10:56 | 41.96264 | -5.71586 | 36021 ft | 425 kts | 349° |
| 2026-05-06 10:57 | 42.02123 | -5.72633 | 36022 ft | 425 kts | 349° |
| 2026-05-06 10:57 | 42.07983 | -5.73684 | 36029 ft | 425 kts | 349° |
| 2026-05-06 10:58 | 42.13733 | -5.74723 | 36023 ft | 424 kts | 349° |
| 2026-05-06 10:58 | 42.19545 | -5.75772 | 36018 ft | 424 kts | 349° |
| 2026-05-06 10:59 | 42.25395 | -5.76819 | 36016 ft | 424 kts | 349° |
| 2026-05-06 10:59 | 42.30984 | -5.77823 | 36032 ft | 424 kts | 349° |
| 2026-05-06 11:00 | 42.36828 | -5.78875 | 36031 ft | 423 kts | 349° |
| 2026-05-06 11:00 | 42.42626 | -5.79924 | 36032 ft | 423 kts | 349° |
| 2026-05-06 11:01 | 42.48116 | -5.80916 | 36046 ft | 423 kts | 349° |
| 2026-05-06 11:01 | 42.53949 | -5.81965 | 36043 ft | 422 kts | 349° |
| 2026-05-06 11:02 | 42.59738 | -5.83016 | 36039 ft | 422 kts | 349° |
| 2026-05-06 11:02 | 42.64873 | -5.83951 | 36034 ft | 422 kts | 349° |
| 2026-05-06 11:03 | 42.70690 | -5.85009 | 36023 ft | 422 kts | 349° |
| 2026-05-06 11:03 | 42.76251 | -5.86023 | 36017 ft | 422 kts | 349° |
| 2026-05-06 11:04 | 42.82022 | -5.87080 | 36013 ft | 422 kts | 349° |
| 2026-05-06 11:04 | 42.87201 | -5.88028 | 36020 ft | 421 kts | 349° |
| 2026-05-06 11:05 | 42.92778 | -5.89046 | 36022 ft | 421 kts | 349° |
| 2026-05-06 11:05 | 42.98501 | -5.90097 | 36027 ft | 421 kts | 349° |
| 2026-05-06 11:06 | 43.03926 | -5.91098 | 36032 ft | 420 kts | 349° |
| 2026-05-06 11:06 | 43.09566 | -5.92134 | 36036 ft | 420 kts | 349° |
| 2026-05-06 11:07 | 43.15303 | -5.93193 | 36039 ft | 420 kts | 349° |
| 2026-05-06 11:07 | 43.20743 | -5.94196 | 36035 ft | 420 kts | 349° |
| 2026-05-06 11:08 | 43.26393 | -5.95237 | 36032 ft | 420 kts | 349° |
| 2026-05-06 11:08 | 43.32180 | -5.96309 | 36058 ft | 420 kts | 349° |
| 2026-05-06 11:09 | 43.37603 | -5.97325 | 36062 ft | 419 kts | 349° |
| 2026-05-06 11:09 | 43.43377 | -5.98405 | 36057 ft | 419 kts | 349° |
| 2026-05-06 11:10 | 43.49134 | -5.99477 | 36060 ft | 419 kts | 350° |
| 2026-05-06 11:10 | 43.54794 | -6.00742 | 36057 ft | 416 kts | 342° |
| 2026-05-06 11:11 | 43.60101 | -6.03774 | 36040 ft | 413 kts | 331° |
| 2026-05-06 11:11 | 43.65188 | -6.07320 | 36031 ft | 412 kts | 331° |
| 2026-05-06 11:12 | 43.70060 | -6.10739 | 36040 ft | 413 kts | 331° |
| 2026-05-06 11:12 | 43.75188 | -6.14338 | 36038 ft | 414 kts | 331° |
| 2026-05-06 11:13 | 43.80288 | -6.17916 | 36039 ft | 415 kts | 331° |
| 2026-05-06 11:13 | 43.85398 | -6.21505 | 36044 ft | 415 kts | 331° |
| 2026-05-06 11:14 | 43.90444 | -6.25058 | 36054 ft | 415 kts | 331° |
| 2026-05-06 11:14 | 43.95590 | -6.28699 | 36054 ft | 415 kts | 331° |
| 2026-05-06 11:15 | 44.00732 | -6.32341 | 36055 ft | 415 kts | 331° |
| 2026-05-06 11:15 | 44.05838 | -6.35964 | 36053 ft | 415 kts | 331° |
| 2026-05-06 11:16 | 44.10980 | -6.39627 | 36051 ft | 415 kts | 331° |
| 2026-05-06 11:16 | 44.16118 | -6.43288 | 36053 ft | 415 kts | 331° |
| 2026-05-06 11:17 | 44.21263 | -6.46953 | 36046 ft | 415 kts | 331° |
| 2026-05-06 11:17 | 44.26372 | -6.50598 | 36043 ft | 416 kts | 331° |
| 2026-05-06 11:18 | 44.31522 | -6.54290 | 36049 ft | 416 kts | 331° |
| 2026-05-06 11:18 | 44.36675 | -6.57998 | 36046 ft | 417 kts | 331° |
| 2026-05-06 11:19 | 44.41831 | -6.61703 | 36048 ft | 417 kts | 331° |
| 2026-05-06 11:19 | 44.46958 | -6.65382 | 36053 ft | 417 kts | 332° |
| 2026-05-06 11:20 | 44.52114 | -6.69113 | 36051 ft | 417 kts | 331° |
| 2026-05-06 11:20 | 44.57269 | -6.72859 | 36052 ft | 417 kts | 331° |
| 2026-05-06 11:21 | 44.62425 | -6.76596 | 36048 ft | 417 kts | 331° |
| 2026-05-06 11:21 | 44.67585 | -6.80338 | 36050 ft | 418 kts | 331° |
| 2026-05-06 11:22 | 44.72710 | -6.84064 | 36054 ft | 418 kts | 331° |
| 2026-05-06 11:22 | 44.77869 | -6.87822 | 36053 ft | 417 kts | 331° |
| 2026-05-06 11:23 | 44.83078 | -6.91447 | 36055 ft | 419 kts | 338° |
| 2026-05-06 11:23 | 44.88740 | -6.93395 | 36053 ft | 420 kts | 348° |
| 2026-05-06 11:24 | 44.94450 | -6.94922 | 36050 ft | 421 kts | 348° |
| 2026-05-06 11:24 | 45.00202 | -6.96466 | 36054 ft | 421 kts | 348° |
| 2026-05-06 11:25 | 45.05949 | -6.98035 | 36056 ft | 421 kts | 348° |
| 2026-05-06 11:25 | 45.11704 | -6.99593 | 36055 ft | 421 kts | 348° |
| 2026-05-06 11:26 | 45.17417 | -7.01145 | 36062 ft | 421 kts | 348° |
| 2026-05-06 11:26 | 45.23170 | -7.02706 | 36060 ft | 421 kts | 348° |
| 2026-05-06 11:27 | 45.28922 | -7.04282 | 36058 ft | 421 kts | 347° |
| 2026-05-06 11:27 | 45.34673 | -7.05868 | 36057 ft | 421 kts | 348° |
| 2026-05-06 11:28 | 45.40422 | -7.07451 | 36063 ft | 421 kts | 348° |
| 2026-05-06 11:28 | 45.46139 | -7.09021 | 36062 ft | 421 kts | 348° |
| 2026-05-06 11:29 | 45.51882 | -7.10602 | 36061 ft | 421 kts | 348° |
| 2026-05-06 11:29 | 45.57633 | -7.12188 | 36061 ft | 421 kts | 348° |
| 2026-05-06 11:30 | 45.63388 | -7.13781 | 36062 ft | 421 kts | 348° |
| 2026-05-06 11:30 | 45.69096 | -7.15362 | 36062 ft | 421 kts | 348° |
| 2026-05-06 11:31 | 45.74844 | -7.16951 | 36069 ft | 421 kts | 348° |
| 2026-05-06 11:31 | 45.80588 | -7.18540 | 36066 ft | 420 kts | 348° |
| 2026-05-06 11:32 | 45.86332 | -7.20142 | 36064 ft | 420 kts | 348° |
| 2026-05-06 11:32 | 45.92072 | -7.21754 | 36062 ft | 420 kts | 348° |
| 2026-05-06 11:33 | 45.97772 | -7.23357 | 36062 ft | 420 kts | 348° |
| 2026-05-06 11:33 | 46.03507 | -7.24976 | 36056 ft | 420 kts | 348° |
| 2026-05-06 11:34 | 46.09242 | -7.26592 | 36062 ft | 420 kts | 348° |
| 2026-05-06 11:34 | 46.14978 | -7.28208 | 36063 ft | 420 kts | 347° |
| 2026-05-06 11:35 | 46.20710 | -7.29830 | 36065 ft | 419 kts | 347° |
| 2026-05-06 11:35 | 46.26394 | -7.31438 | 36067 ft | 419 kts | 347° |
| 2026-05-06 11:36 | 46.32117 | -7.33070 | 36060 ft | 419 kts | 347° |
| 2026-05-06 11:36 | 46.37834 | -7.34682 | 36066 ft | 419 kts | 347° |
| 2026-05-06 11:37 | 46.43549 | -7.36309 | 36066 ft | 418 kts | 347° |
| 2026-05-06 11:37 | 46.49219 | -7.37933 | 36061 ft | 418 kts | 347° |
| 2026-05-06 11:38 | 46.54930 | -7.39567 | 36060 ft | 418 kts | 347° |
| 2026-05-06 11:38 | 46.60630 | -7.41201 | 36054 ft | 418 kts | 347° |
| 2026-05-06 11:39 | 46.66343 | -7.42846 | 36053 ft | 418 kts | 347° |
| 2026-05-06 11:39 | 46.72011 | -7.44482 | 36057 ft | 418 kts | 347° |
| 2026-05-06 11:40 | 46.77717 | -7.46119 | 36047 ft | 418 kts | 347° |
| 2026-05-06 11:40 | 46.83419 | -7.47767 | 36056 ft | 418 kts | 347° |
| 2026-05-06 11:41 | 46.89122 | -7.49430 | 36053 ft | 418 kts | 347° |
| 2026-05-06 11:41 | 46.94780 | -7.51063 | 36058 ft | 418 kts | 347° |
| 2026-05-06 11:42 | 47.00486 | -7.52727 | 36052 ft | 418 kts | 347° |
| 2026-05-06 11:42 | 47.06190 | -7.54396 | 36052 ft | 418 kts | 347° |
| 2026-05-06 11:43 | 47.11898 | -7.56066 | 36055 ft | 418 kts | 347° |
| 2026-05-06 11:43 | 47.17565 | -7.57723 | 36056 ft | 418 kts | 347° |
| 2026-05-06 11:44 | 47.26127 | -7.60249 | 36049 ft | 419 kts | 347° |
| 2026-05-06 11:44 | 47.31840 | -7.61935 | 36049 ft | 419 kts | 347° |
| 2026-05-06 11:45 | 47.37556 | -7.63623 | 36052 ft | 419 kts | 347° |
| 2026-05-06 11:45 | 47.43268 | -7.65313 | 36051 ft | 419 kts | 347° |
| 2026-05-06 11:46 | 47.48949 | -7.66994 | 36051 ft | 419 kts | 347° |
| 2026-05-06 11:46 | 47.54664 | -7.68698 | 36057 ft | 419 kts | 347° |
| 2026-05-06 11:47 | 47.60383 | -7.70410 | 36052 ft | 419 kts | 347° |
| 2026-05-06 11:47 | 47.66101 | -7.72115 | 36054 ft | 419 kts | 347° |
| 2026-05-06 11:48 | 47.71819 | -7.73818 | 36052 ft | 419 kts | 347° |
| 2026-05-06 11:48 | 47.77498 | -7.75517 | 36055 ft | 419 kts | 347° |
| 2026-05-06 11:49 | 47.83218 | -7.77237 | 36057 ft | 419 kts | 347° |
| 2026-05-06 11:49 | 47.88935 | -7.78961 | 36055 ft | 419 kts | 347° |
| 2026-05-06 11:50 | 47.94656 | -7.80694 | 36053 ft | 419 kts | 347° |
| 2026-05-06 11:50 | 48.00372 | -7.82426 | 36057 ft | 419 kts | 347° |
| 2026-05-06 11:51 | 48.06054 | -7.84140 | 36055 ft | 419 kts | 347° |
| 2026-05-06 11:51 | 48.11771 | -7.85882 | 36055 ft | 419 kts | 347° |
| 2026-05-06 11:52 | 48.17492 | -7.87627 | 36057 ft | 419 kts | 347° |
| 2026-05-06 11:52 | 48.23209 | -7.89371 | 36056 ft | 419 kts | 347° |
| 2026-05-06 11:53 | 48.28892 | -7.91108 | 36059 ft | 419 kts | 347° |
| 2026-05-06 11:53 | 48.34611 | -7.92864 | 36057 ft | 419 kts | 347° |
| 2026-05-06 11:54 | 48.40324 | -7.94634 | 36056 ft | 419 kts | 347° |
| 2026-05-06 11:54 | 48.46042 | -7.96399 | 36053 ft | 419 kts | 347° |
| 2026-05-06 11:55 | 48.51760 | -7.98152 | 36056 ft | 419 kts | 347° |
| 2026-05-06 11:55 | 48.57441 | -7.99867 | 36051 ft | 420 kts | 350° |
| 2026-05-06 11:56 | 48.63273 | -8.00561 | 36049 ft | 421 kts | 354° |
| 2026-05-06 11:56 | 48.69115 | -8.01135 | 36049 ft | 421 kts | 354° |
| 2026-05-06 11:57 | 48.74920 | -8.01697 | 36049 ft | 421 kts | 355° |
| 2026-05-06 11:57 | 48.80761 | -8.02265 | 36057 ft | 421 kts | 355° |
| 2026-05-06 11:58 | 48.86603 | -8.02833 | 36056 ft | 421 kts | 354° |
| 2026-05-06 11:58 | 48.92447 | -8.03427 | 36054 ft | 421 kts | 354° |
| 2026-05-06 11:59 | 48.98288 | -8.04018 | 36051 ft | 421 kts | 354° |
| 2026-05-06 11:59 | 49.04089 | -8.04599 | 36057 ft | 421 kts | 354° |
| 2026-05-06 12:00 | 49.09933 | -8.05192 | 36055 ft | 421 kts | 354° |
| 2026-05-06 12:00 | 49.15781 | -8.05767 | 36055 ft | 421 kts | 354° |
| 2026-05-06 12:01 | 49.21624 | -8.06354 | 36055 ft | 421 kts | 354° |
| 2026-05-06 12:01 | 49.27426 | -8.06937 | 36058 ft | 421 kts | 354° |
| 2026-05-06 12:02 | 49.33267 | -8.07514 | 36053 ft | 421 kts | 354° |
| 2026-05-06 12:02 | 49.39109 | -8.08103 | 36054 ft | 421 kts | 354° |
| 2026-05-06 12:03 | 49.44954 | -8.08712 | 36054 ft | 421 kts | 354° |
| 2026-05-06 12:03 | 49.50763 | -8.09310 | 36056 ft | 421 kts | 354° |
| 2026-05-06 12:04 | 49.56618 | -8.09897 | 36054 ft | 422 kts | 354° |
| 2026-05-06 12:04 | 49.62475 | -8.10494 | 36058 ft | 422 kts | 354° |
| 2026-05-06 12:05 | 49.68328 | -8.11096 | 36059 ft | 421 kts | 354° |
| 2026-05-06 12:05 | 49.74173 | -8.11704 | 36067 ft | 421 kts | 354° |
| 2026-05-06 12:06 | 49.79976 | -8.12299 | 36067 ft | 420 kts | 354° |
| 2026-05-06 12:06 | 49.85812 | -8.12897 | 36055 ft | 420 kts | 354° |
| 2026-05-06 12:07 | 49.91647 | -8.13512 | 36054 ft | 420 kts | 354° |
| 2026-05-06 12:07 | 49.97472 | -8.14115 | 36048 ft | 420 kts | 354° |
| 2026-05-06 12:08 | 50.03264 | -8.14705 | 36040 ft | 420 kts | 354° |
| 2026-05-06 12:08 | 50.09089 | -8.15308 | 36038 ft | 420 kts | 354° |
| 2026-05-06 12:09 | 50.14912 | -8.15925 | 36044 ft | 419 kts | 354° |
| 2026-05-06 12:09 | 50.20737 | -8.16541 | 36039 ft | 419 kts | 354° |
| 2026-05-06 12:10 | 50.26515 | -8.17152 | 36036 ft | 419 kts | 354° |
| 2026-05-06 12:10 | 50.32329 | -8.17766 | 36033 ft | 419 kts | 354° |
| 2026-05-06 12:11 | 50.38141 | -8.18376 | 36036 ft | 418 kts | 354° |
| 2026-05-06 12:11 | 50.43951 | -8.18983 | 36034 ft | 418 kts | 354° |
| 2026-05-06 12:12 | 50.49756 | -8.19606 | 36033 ft | 418 kts | 354° |
| 2026-05-06 12:12 | 50.55523 | -8.20212 | 36032 ft | 418 kts | 354° |
| 2026-05-06 12:13 | 50.61330 | -8.20827 | 36039 ft | 418 kts | 354° |
| 2026-05-06 12:13 | 50.67134 | -8.21456 | 36037 ft | 418 kts | 354° |
| 2026-05-06 12:14 | 50.72897 | -8.22077 | 36032 ft | 418 kts | 354° |
| 2026-05-06 12:14 | 50.78696 | -8.22711 | 36034 ft | 418 kts | 354° |
| 2026-05-06 12:15 | 50.84500 | -8.23335 | 36036 ft | 418 kts | 354° |
| 2026-05-06 12:15 | 50.90302 | -8.23955 | 36036 ft | 418 kts | 354° |
| 2026-05-06 12:16 | 50.96068 | -8.24502 | 36034 ft | 419 kts | 359° |
| 2026-05-06 12:16 | 51.01796 | -8.22810 | 36033 ft | 423 kts | 19° |
| 2026-05-06 12:17 | 51.06980 | -8.18363 | 36033 ft | 425 kts | 29° |
| 2026-05-06 12:17 | 51.12048 | -8.13518 | 36034 ft | 425 kts | 29° |
| 2026-05-06 12:18 | 51.17085 | -8.08697 | 36031 ft | 425 kts | 29° |
| 2026-05-06 12:18 | 51.22155 | -8.03830 | 36028 ft | 426 kts | 29° |
| 2026-05-06 12:19 | 51.27223 | -7.98940 | 36033 ft | 426 kts | 29° |
| 2026-05-06 12:19 | 51.32294 | -7.94037 | 36044 ft | 426 kts | 29° |
| 2026-05-06 12:20 | 51.37370 | -7.89131 | 36041 ft | 427 kts | 29° |
| 2026-05-06 12:20 | 51.42405 | -7.84239 | 36051 ft | 427 kts | 29° |
| 2026-05-06 12:21 | 51.47477 | -7.79293 | 36043 ft | 427 kts | 29° |
| 2026-05-06 12:21 | 51.52548 | -7.74346 | 36046 ft | 426 kts | 29° |
| 2026-05-06 12:22 | 51.57617 | -7.69390 | 36053 ft | 427 kts | 29° |
| 2026-05-06 12:22 | 51.62686 | -7.64413 | 36044 ft | 427 kts | 29° |
| 2026-05-06 12:23 | 51.67722 | -7.59459 | 36040 ft | 427 kts | 29° |
| 2026-05-06 12:23 | 51.72792 | -7.54459 | 36046 ft | 427 kts | 29° |
| 2026-05-06 12:24 | 51.77858 | -7.49450 | 36041 ft | 427 kts | 29° |
| 2026-05-06 12:24 | 51.82917 | -7.44435 | 36053 ft | 427 kts | 29° |
| 2026-05-06 12:25 | 51.87975 | -7.39403 | 36046 ft | 426 kts | 29° |
| 2026-05-06 12:25 | 51.93005 | -7.34389 | 35914 ft | 433 kts | 29° |
| 2026-05-06 12:26 | 51.95581 | -7.31819 | 35671 ft | 436 kts | 29° |
| 2026-05-06 12:26 | 51.97991 | -7.29411 | 35438 ft | 435 kts | 29° |
| 2026-05-06 12:26 | 52.00569 | -7.26823 | 35189 ft | 434 kts | 29° |
| 2026-05-06 12:26 | 52.03130 | -7.24244 | 34957 ft | 432 kts | 29° |
| 2026-05-06 12:27 | 52.05681 | -7.21674 | 34718 ft | 430 kts | 29° |
| 2026-05-06 12:27 | 52.08215 | -7.19119 | 34484 ft | 427 kts | 29° |
| 2026-05-06 12:27 | 52.10729 | -7.16586 | 33993 ft | 424 kts | 29° |
| 2026-05-06 12:27 | 52.13198 | -7.14102 | 33426 ft | 421 kts | 29° |
| 2026-05-06 12:28 | 52.15672 | -7.11606 | 32913 ft | 417 kts | 29° |
| 2026-05-06 12:28 | 52.18115 | -7.09135 | 32401 ft | 413 kts | 29° |
| 2026-05-06 12:28 | 52.20546 | -7.06663 | 31890 ft | 410 kts | 29° |
| 2026-05-06 12:28 | 52.22453 | -7.04701 | 31502 ft | 408 kts | 29° |
| 2026-05-06 12:29 | 52.24838 | -7.02229 | 30994 ft | 405 kts | 30° |
| 2026-05-06 12:29 | 52.27208 | -6.99761 | 30515 ft | 403 kts | 30° |
| 2026-05-06 12:29 | 52.29560 | -6.97311 | 30019 ft | 400 kts | 30° |
| 2026-05-06 12:29 | 52.31895 | -6.94878 | 29521 ft | 396 kts | 30° |
| 2026-05-06 12:30 | 52.34178 | -6.92500 | 29072 ft | 392 kts | 30° |
| 2026-05-06 12:30 | 52.36465 | -6.90120 | 28623 ft | 387 kts | 30° |
| 2026-05-06 12:30 | 52.38657 | -6.87832 | 28200 ft | 384 kts | 30° |
| 2026-05-06 12:30 | 52.40894 | -6.85492 | 27755 ft | 380 kts | 30° |
| 2026-05-06 12:31 | 52.43103 | -6.83183 | 27308 ft | 376 kts | 30° |
| 2026-05-06 12:31 | 52.45158 | -6.81031 | 26895 ft | 373 kts | 30° |
| 2026-05-06 12:31 | 52.46968 | -6.79134 | 26509 ft | 371 kts | 30° |
| 2026-05-06 12:31 | 52.49002 | -6.77003 | 26064 ft | 368 kts | 30° |
| 2026-05-06 12:32 | 52.51156 | -6.74746 | 25592 ft | 366 kts | 30° |
| 2026-05-06 12:32 | 52.53268 | -6.72530 | 25124 ft | 365 kts | 30° |
| 2026-05-06 12:32 | 52.55398 | -6.70287 | 24627 ft | 363 kts | 30° |
| 2026-05-06 12:32 | 52.56836 | -6.68771 | 24294 ft | 363 kts | 30° |
| 2026-05-06 12:33 | 52.59577 | -6.65890 | 23654 ft | 361 kts | 28° |
| 2026-05-06 12:33 | 52.61850 | -6.64190 | 23098 ft | 357 kts | 15° |
| 2026-05-06 12:33 | 52.64246 | -6.63372 | 22656 ft | 349 kts | 2° |
| 2026-05-06 12:33 | 52.65696 | -6.63295 | 22412 ft | 344 kts | 355° |
| 2026-05-06 12:34 | 52.68345 | -6.63569 | 21954 ft | 341 kts | 354° |
| 2026-05-06 12:34 | 52.70707 | -6.63788 | 21543 ft | 339 kts | 354° |